TimeCET,TemperatureF,Dew PointF,Humidity,Sea Level PressureIn,VisibilityMPH,Wind Direction,Wind SpeedMPH,Gust SpeedMPH,PrecipitationIn,Events,Conditions,WindDirDegrees,DateUTC
12:00 AM,44.6,42.8,93,30.21,-9999.0,Variable,1.2,-,N/A,,Clear,0,2012-12-03 23:00:00
12:30 AM,42.8,41.0,93,30.18,-9999.0,NNE,1.2,-,N/A,,Clear,30,2012-12-03 23:30:00
1:00 AM,41,39,89,30.20,11,Calm,Calm,,,,,,2012-12-04 00:00:00
1:00 AM,42.8,41.0,93,30.18,-9999.0,Calm,Calm,-,N/A,,Clear,0,2012-12-04 00:00:00
1:30 AM,42.8,42.8,100,30.18,-9999.0,Calm,Calm,-,N/A,,Clear,0,2012-12-04 00:30:00
2:00 AM,41.0,39.2,93,30.15,-9999.0,Calm,Calm,-,N/A,,Clear,0,2012-12-04 01:00:00
2:30 AM,41.0,39.2,93,30.15,-9999.0,Calm,Calm,-,N/A,,Clear,0,2012-12-04 01:30:00
3:00 AM,41.0,39.2,93,30.15,-9999.0,NNE,2.3,-,N/A,,Clear,30,2012-12-04 02:00:00
3:30 AM,42.8,41.0,93,30.12,-9999.0,Variable,1.2,-,N/A,,Clear,0,2012-12-04 02:30:00
4:00 AM,42.8,41.0,93,30.12,-9999.0,Variable,1.2,-,N/A,,Clear,0,2012-12-04 03:00:00
4:30 AM,42.8,42.8,100,30.09,-9999.0,ENE,2.3,-,N/A,,Clear,60,2012-12-04 03:30:00
5:00 AM,42.8,42.8,100,30.09,-9999.0,Calm,Calm,-,N/A,,Clear,0,2012-12-04 04:00:00
5:30 AM,44.6,42.8,93,30.06,-9999.0,Variable,2.3,-,N/A,,Clear,0,2012-12-04 04:30:00
6:00 AM,51.8,51.8,100,30.06,-9999.0,NW,5.8,-,N/A,,Clear,310,2012-12-04 05:00:00
6:30 AM,51.8,50.0,94,30.06,6.2,WSW,5.8,-,N/A,,Partly Cloudy,250,2012-12-04 05:30:00
7:00 AM,50,47,84,30.07,12,NNE,4.6,,,,Scattered Clouds,30,2012-12-04 06:00:00
7:00 AM,51.8,48.2,88,30.06,6.2,West,8.1,-,N/A,,Partly Cloudy,260,2012-12-04 06:00:00
7:30 AM,53.6,50.0,88,30.06,6.2,WSW,9.2,-,N/A,,Partly Cloudy,240,2012-12-04 06:30:00
8:00 AM,53.6,50.0,88,30.04,6.2,WSW,6.9,-,N/A,,Partly Cloudy,240,2012-12-04 07:00:00
8:30 AM,57.2,51.8,82,30.06,6.2,West,4.6,-,N/A,,Partly Cloudy,270,2012-12-04 07:30:00
9:00 AM,57.2,50.0,77,30.04,6.2,West,8.1,-,N/A,,Partly Cloudy,260,2012-12-04 08:00:00
9:30 AM,57.2,50.0,77,30.04,6.2,SW,6.9,-,N/A,,Partly Cloudy,220,2012-12-04 08:30:00
10:00 AM,57.2,50.0,77,30.04,6.2,SW,4.6,-,N/A,,Partly Cloudy,230,2012-12-04 09:00:00
10:30 AM,59.0,51.8,77,30.04,6.2,WSW,8.1,-,N/A,,Partly Cloudy,250,2012-12-04 09:30:00
11:00 AM,60.8,48.2,63,30.04,6.2,WSW,8.1,-,N/A,,Partly Cloudy,240,2012-12-04 10:00:00
11:30 AM,60.8,50.0,68,30.04,6.2,West,10.4,-,N/A,,Partly Cloudy,260,2012-12-04 10:30:00
12:00 PM,60.8,48.2,63,30.04,6.2,West,9.2,-,N/A,,Partly Cloudy,280,2012-12-04 11:00:00
12:30 PM,60.8,46.4,59,30.01,6.2,WNW,6.9,-,N/A,,Partly Cloudy,290,2012-12-04 11:30:00
1:00 PM,60,43,42,30.02,12,WNW,9.2,,,,Overcast,290,2012-12-04 12:00:00
1:00 PM,60.8,46.4,59,30.01,6.2,WNW,9.2,-,N/A,,Partly Cloudy,290,2012-12-04 12:00:00
1:30 PM,60.8,46.4,59,30.01,6.2,West,12.7,-,N/A,,Partly Cloudy,280,2012-12-04 12:30:00
2:00 PM,60.8,44.6,55,30.01,6.2,West,12.7,-,N/A,,Partly Cloudy,280,2012-12-04 13:00:00
2:30 PM,60.8,46.4,59,29.98,6.2,West,13.8,-,N/A,,Partly Cloudy,280,2012-12-04 13:30:00
3:00 PM,62.6,44.6,52,29.98,6.2,WNW,17.3,-,N/A,,Partly Cloudy,290,2012-12-04 14:00:00
3:30 PM,60.8,44.6,55,29.98,6.2,NW,19.6,33.4,N/A,,Partly Cloudy,310,2012-12-04 14:30:00
4:00 PM,60.8,44.6,55,29.98,6.2,NW,21.9,-,N/A,,Partly Cloudy,310,2012-12-04 15:00:00
4:30 PM,60.8,42.8,52,30.01,6.2,NW,16.1,-,N/A,,Partly Cloudy,320,2012-12-04 15:30:00
5:00 PM,59.0,42.8,55,29.98,6.2,WNW,15.0,26.5,N/A,,Partly Cloudy,300,2012-12-04 16:00:00
5:30 PM,59.0,42.8,55,30.01,6.2,NW,17.3,-,N/A,,Partly Cloudy,320,2012-12-04 16:30:00
6:00 PM,59.0,42.8,55,30.01,6.2,WNW,8.1,-,N/A,,Partly Cloudy,290,2012-12-04 17:00:00
6:30 PM,59.0,37.4,45,30.01,6.2,WNW,15.0,28.8,N/A,,Partly Cloudy,300,2012-12-04 17:30:00
7:00 PM,57,36,34,30.01,16,West,11.5,,,,Scattered Clouds,280,2012-12-04 18:00:00
7:00 PM,59.0,41.0,51,30.01,6.2,WNW,15.0,-,N/A,,Partly Cloudy,290,2012-12-04 18:00:00
7:30 PM,59.0,39.2,48,30.01,6.2,WNW,10.4,21.9,N/A,,Partly Cloudy,300,2012-12-04 18:30:00
8:00 PM,59.0,39.2,48,30.04,6.2,WNW,10.4,-,N/A,,Partly Cloudy,300,2012-12-04 19:00:00
8:30 PM,59.0,37.4,45,30.04,6.2,WNW,15.0,26.5,N/A,,Partly Cloudy,290,2012-12-04 19:30:00
9:00 PM,57.2,35.6,44,30.04,6.2,NW,11.5,-,N/A,,Partly Cloudy,320,2012-12-04 20:00:00
9:30 PM,57.2,39.2,51,30.04,6.2,WNW,8.1,-,N/A,,Partly Cloudy,290,2012-12-04 20:30:00
10:00 PM,57.2,39.2,51,30.04,6.2,NW,4.6,16.1,N/A,,Partly Cloudy,310,2012-12-04 21:00:00
10:30 PM,57.2,37.4,48,30.04,6.2,NW,10.4,-,N/A,,Partly Cloudy,310,2012-12-04 21:30:00
11:00 PM,57.2,35.6,44,30.04,6.2,NW,15.0,27.6,N/A,,Partly Cloudy,310,2012-12-04 22:00:00
11:30 PM,57.2,35.6,44,30.04,6.2,NNW,10.4,-,N/A,,Partly Cloudy,330,2012-12-04 22:30:00